sensor_id;sensor_type;location;lat;lon;timestamp;P1;durP1;ratioP1;P2;durP2;ratioP2
16792;SDS011;8513;42.662;23.350;2022-11-20T00:01:42;5.05;;;4.25;;
16792;SDS011;8513;42.662;23.350;2022-11-20T00:04:08;6.88;;;4.65;;
16792;SDS011;8513;42.662;23.350;2022-11-20T00:06:35;7.97;;;6.45;;
16792;SDS011;8513;42.662;23.350;2022-11-20T00:09:00;9.05;;;7.22;;
16792;SDS011;8513;42.662;23.350;2022-11-20T00:11:27;9.63;;;7.38;;
16792;SDS011;8513;42.662;23.350;2022-11-20T00:13:54;8.32;;;6.78;;
16792;SDS011;8513;42.662;23.350;2022-11-20T00:16:25;10.45;;;7.50;;
16792;SDS011;8513;42.662;23.350;2022-11-20T00:18:52;5.28;;;2.90;;
16792;SDS011;8513;42.662;23.350;2022-11-20T00:21:18;4.05;;;2.42;;
16792;SDS011;8513;42.662;23.350;2022-11-20T00:23:46;6.25;;;5.20;;
16792;SDS011;8513;42.662;23.350;2022-11-20T00:26:15;9.30;;;5.80;;
16792;SDS011;8513;42.662;23.350;2022-11-20T00:28:42;8.93;;;4.28;;
16792;SDS011;8513;42.662;23.350;2022-11-20T00:31:10;4.70;;;4.20;;
16792;SDS011;8513;42.662;23.350;2022-11-20T00:33:39;5.93;;;4.13;;
16792;SDS011;8513;42.662;23.350;2022-11-20T00:36:10;5.55;;;4.40;;
16792;SDS011;8513;42.662;23.350;2022-11-20T00:38:40;6.07;;;4.28;;
16792;SDS011;8513;42.662;23.350;2022-11-20T00:41:06;7.85;;;4.30;;
16792;SDS011;8513;42.662;23.350;2022-11-20T00:43:33;4.10;;;3.45;;
16792;SDS011;8513;42.662;23.350;2022-11-20T00:46:00;4.45;;;3.58;;
16792;SDS011;8513;42.662;23.350;2022-11-20T00:48:31;6.40;;;3.80;;
16792;SDS011;8513;42.662;23.350;2022-11-20T00:50:57;5.00;;;3.75;;
16792;SDS011;8513;42.662;23.350;2022-11-20T00:53:22;3.92;;;3.47;;
16792;SDS011;8513;42.662;23.350;2022-11-20T00:55:58;5.18;;;2.70;;
16792;SDS011;8513;42.662;23.350;2022-11-20T00:58:28;4.82;;;2.63;;
16792;SDS011;8513;42.662;23.350;2022-11-20T01:01:03;3.15;;;1.73;;
16792;SDS011;8513;42.662;23.350;2022-11-20T01:03:37;4.03;;;2.60;;
16792;SDS011;8513;42.662;23.350;2022-11-20T01:06:05;2.83;;;2.35;;
16792;SDS011;8513;42.662;23.350;2022-11-20T01:08:34;4.72;;;2.05;;
16792;SDS011;8513;42.662;23.350;2022-11-20T01:11:04;2.80;;;2.00;;
16792;SDS011;8513;42.662;23.350;2022-11-20T01:13:32;2.03;;;1.40;;
16792;SDS011;8513;42.662;23.350;2022-11-20T01:16:14;1.98;;;1.30;;
16792;SDS011;8513;42.662;23.350;2022-11-20T01:18:45;3.03;;;1.05;;
16792;SDS011;8513;42.662;23.350;2022-11-20T01:21:13;2.13;;;1.20;;
16792;SDS011;8513;42.662;23.350;2022-11-20T01:23:41;2.40;;;1.50;;
16792;SDS011;8513;42.662;23.350;2022-11-20T01:26:11;3.78;;;1.40;;
16792;SDS011;8513;42.662;23.350;2022-11-20T01:28:38;2.85;;;1.35;;
16792;SDS011;8513;42.662;23.350;2022-11-20T01:33:39;2.78;;;1.40;;
16792;SDS011;8513;42.662;23.350;2022-11-20T01:36:06;2.17;;;1.52;;
16792;SDS011;8513;42.662;23.350;2022-11-20T01:38:32;1.98;;;1.75;;
16792;SDS011;8513;42.662;23.350;2022-11-20T01:40:58;3.08;;;1.65;;
16792;SDS011;8513;42.662;23.350;2022-11-20T01:43:23;2.47;;;1.77;;
16792;SDS011;8513;42.662;23.350;2022-11-20T01:48:30;3.25;;;1.38;;
16792;SDS011;8513;42.662;23.350;2022-11-20T01:51:00;3.20;;;1.15;;
16792;SDS011;8513;42.662;23.350;2022-11-20T01:53:30;1.65;;;1.17;;
16792;SDS011;8513;42.662;23.350;2022-11-20T01:56:00;2.38;;;1.10;;
16792;SDS011;8513;42.662;23.350;2022-11-20T01:58:29;3.40;;;2.13;;
16792;SDS011;8513;42.662;23.350;2022-11-20T02:00:58;1.88;;;1.70;;
16792;SDS011;8513;42.662;23.350;2022-11-20T02:03:24;2.50;;;1.55;;
16792;SDS011;8513;42.662;23.350;2022-11-20T02:05:51;4.35;;;1.60;;
16792;SDS011;8513;42.662;23.350;2022-11-20T02:08:20;2.80;;;2.13;;
16792;SDS011;8513;42.662;23.350;2022-11-20T02:10:48;2.78;;;1.67;;
16792;SDS011;8513;42.662;23.350;2022-11-20T02:13:13;3.10;;;2.13;;
16792;SDS011;8513;42.662;23.350;2022-11-20T02:15:58;7.25;;;2.97;;
16792;SDS011;8513;42.662;23.350;2022-11-20T02:18:23;5.82;;;2.58;;
16792;SDS011;8513;42.662;23.350;2022-11-20T02:20:50;3.03;;;1.90;;
16792;SDS011;8513;42.662;23.350;2022-11-20T02:26:09;3.00;;;1.85;;
16792;SDS011;8513;42.662;23.350;2022-11-20T02:28:37;2.05;;;1.15;;
16792;SDS011;8513;42.662;23.350;2022-11-20T02:31:03;5.15;;;1.17;;
16792;SDS011;8513;42.662;23.350;2022-11-20T02:33:28;4.28;;;1.58;;
16792;SDS011;8513;42.662;23.350;2022-11-20T02:35:53;3.03;;;0.93;;
16792;SDS011;8513;42.662;23.350;2022-11-20T02:38:19;2.00;;;0.80;;
16792;SDS011;8513;42.662;23.350;2022-11-20T02:40:45;2.15;;;0.90;;
16792;SDS011;8513;42.662;23.350;2022-11-20T02:43:10;1.23;;;0.80;;
16792;SDS011;8513;42.662;23.350;2022-11-20T02:45:36;1.35;;;1.15;;
16792;SDS011;8513;42.662;23.350;2022-11-20T02:48:01;2.45;;;0.90;;
16792;SDS011;8513;42.662;23.350;2022-11-20T02:50:26;1.23;;;0.90;;
16792;SDS011;8513;42.662;23.350;2022-11-20T02:52:52;2.05;;;0.80;;
16792;SDS011;8513;42.662;23.350;2022-11-20T02:55:17;2.10;;;0.90;;
16792;SDS011;8513;42.662;23.350;2022-11-20T02:57:43;4.05;;;0.93;;
16792;SDS011;8513;42.662;23.350;2022-11-20T03:00:08;4.07;;;1.02;;
16792;SDS011;8513;42.662;23.350;2022-11-20T03:02:34;2.47;;;1.10;;
16792;SDS011;8513;42.662;23.350;2022-11-20T03:05:00;3.47;;;1.00;;
16792;SDS011;8513;42.662;23.350;2022-11-20T03:07:26;3.63;;;1.15;;
16792;SDS011;8513;42.662;23.350;2022-11-20T03:09:51;3.28;;;0.98;;
16792;SDS011;8513;42.662;23.350;2022-11-20T03:12:16;2.70;;;0.90;;
16792;SDS011;8513;42.662;23.350;2022-11-20T03:14:42;4.05;;;0.95;;
16792;SDS011;8513;42.662;23.350;2022-11-20T03:17:07;2.28;;;1.00;;
16792;SDS011;8513;42.662;23.350;2022-11-20T03:19:33;2.70;;;1.10;;
16792;SDS011;8513;42.662;23.350;2022-11-20T03:21:59;2.38;;;1.27;;
16792;SDS011;8513;42.662;23.350;2022-11-20T03:24:25;2.70;;;1.10;;
16792;SDS011;8513;42.662;23.350;2022-11-20T03:26:50;4.45;;;1.23;;
16792;SDS011;8513;42.662;23.350;2022-11-20T03:29:16;3.45;;;1.00;;
16792;SDS011;8513;42.662;23.350;2022-11-20T03:31:41;3.17;;;1.50;;
16792;SDS011;8513;42.662;23.350;2022-11-20T03:34:07;4.05;;;1.13;;
16792;SDS011;8513;42.662;23.350;2022-11-20T03:36:34;2.97;;;1.13;;
16792;SDS011;8513;42.662;23.350;2022-11-20T03:38:59;2.88;;;0.90;;
16792;SDS011;8513;42.662;23.350;2022-11-20T03:41:29;2.05;;;0.98;;
16792;SDS011;8513;42.662;23.350;2022-11-20T03:43:57;3.03;;;0.90;;
16792;SDS011;8513;42.662;23.350;2022-11-20T03:46:24;2.08;;;0.90;;
16792;SDS011;8513;42.662;23.350;2022-11-20T03:48:51;1.92;;;0.90;;
16792;SDS011;8513;42.662;23.350;2022-11-20T03:53:45;2.13;;;1.00;;
16792;SDS011;8513;42.662;23.350;2022-11-20T03:56:13;3.22;;;1.00;;
16792;SDS011;8513;42.662;23.350;2022-11-20T03:58:40;2.30;;;1.02;;
16792;SDS011;8513;42.662;23.350;2022-11-20T04:01:13;2.60;;;0.90;;
16792;SDS011;8513;42.662;23.350;2022-11-20T04:03:41;1.92;;;0.98;;
16792;SDS011;8513;42.662;23.350;2022-11-20T04:06:09;3.55;;;1.15;;
16792;SDS011;8513;42.662;23.350;2022-11-20T04:08:38;2.72;;;0.98;;
16792;SDS011;8513;42.662;23.350;2022-11-20T04:11:14;3.88;;;1.10;;
16792;SDS011;8513;42.662;23.350;2022-11-20T04:13:49;3.03;;;0.95;;
16792;SDS011;8513;42.662;23.350;2022-11-20T04:16:16;1.92;;;1.00;;
16792;SDS011;8513;42.662;23.350;2022-11-20T04:18:43;2.63;;;0.90;;
16792;SDS011;8513;42.662;23.350;2022-11-20T04:21:09;2.03;;;1.00;;
16792;SDS011;8513;42.662;23.350;2022-11-20T04:23:34;2.13;;;0.98;;
16792;SDS011;8513;42.662;23.350;2022-11-20T04:26:00;3.30;;;0.98;;
16792;SDS011;8513;42.662;23.350;2022-11-20T04:28:28;1.40;;;0.90;;
16792;SDS011;8513;42.662;23.350;2022-11-20T04:30:53;1.75;;;1.00;;
16792;SDS011;8513;42.662;23.350;2022-11-20T04:33:18;1.65;;;0.80;;
16792;SDS011;8513;42.662;23.350;2022-11-20T04:35:44;3.33;;;0.90;;
16792;SDS011;8513;42.662;23.350;2022-11-20T04:38:12;3.15;;;0.80;;
16792;SDS011;8513;42.662;23.350;2022-11-20T04:40:38;1.45;;;0.90;;
16792;SDS011;8513;42.662;23.350;2022-11-20T04:43:04;3.17;;;1.00;;
16792;SDS011;8513;42.662;23.350;2022-11-20T04:45:29;2.08;;;0.70;;
16792;SDS011;8513;42.662;23.350;2022-11-20T04:47:55;2.75;;;0.98;;
16792;SDS011;8513;42.662;23.350;2022-11-20T04:50:20;2.75;;;0.93;;
16792;SDS011;8513;42.662;23.350;2022-11-20T04:52:46;3.03;;;0.98;;
16792;SDS011;8513;42.662;23.350;2022-11-20T04:55:11;1.88;;;0.90;;
16792;SDS011;8513;42.662;23.350;2022-11-20T04:57:36;1.98;;;1.02;;
16792;SDS011;8513;42.662;23.350;2022-11-20T05:00:02;2.95;;;0.95;;
16792;SDS011;8513;42.662;23.350;2022-11-20T05:02:28;3.05;;;0.88;;
16792;SDS011;8513;42.662;23.350;2022-11-20T05:04:56;1.85;;;0.80;;
16792;SDS011;8513;42.662;23.350;2022-11-20T05:07:21;2.38;;;1.30;;
16792;SDS011;8513;42.662;23.350;2022-11-20T05:09:46;2.22;;;0.90;;
16792;SDS011;8513;42.662;23.350;2022-11-20T05:12:12;3.17;;;0.85;;
16792;SDS011;8513;42.662;23.350;2022-11-20T05:14:37;1.45;;;1.13;;
16792;SDS011;8513;42.662;23.350;2022-11-20T05:17:03;0.95;;;0.77;;
16792;SDS011;8513;42.662;23.350;2022-11-20T05:19:28;2.08;;;0.90;;
16792;SDS011;8513;42.662;23.350;2022-11-20T05:21:54;1.58;;;1.17;;
16792;SDS011;8513;42.662;23.350;2022-11-20T05:24:19;2.00;;;1.08;;
16792;SDS011;8513;42.662;23.350;2022-11-20T05:26:44;2.90;;;0.70;;
16792;SDS011;8513;42.662;23.350;2022-11-20T05:29:10;1.52;;;0.80;;
16792;SDS011;8513;42.662;23.350;2022-11-20T05:31:38;2.35;;;1.15;;
16792;SDS011;8513;42.662;23.350;2022-11-20T05:34:04;1.48;;;1.00;;
16792;SDS011;8513;42.662;23.350;2022-11-20T05:36:30;1.48;;;1.20;;
16792;SDS011;8513;42.662;23.350;2022-11-20T05:38:56;3.60;;;1.13;;
16792;SDS011;8513;42.662;23.350;2022-11-20T05:41:21;5.63;;;1.45;;
16792;SDS011;8513;42.662;23.350;2022-11-20T05:43:47;1.58;;;1.10;;
16792;SDS011;8513;42.662;23.350;2022-11-20T05:46:14;5.35;;;1.75;;
16792;SDS011;8513;42.662;23.350;2022-11-20T05:48:41;3.17;;;1.10;;
16792;SDS011;8513;42.662;23.350;2022-11-20T05:51:09;4.18;;;1.20;;
16792;SDS011;8513;42.662;23.350;2022-11-20T05:54:00;2.30;;;0.70;;
16792;SDS011;8513;42.662;23.350;2022-11-20T05:56:26;3.53;;;1.00;;
16792;SDS011;8513;42.662;23.350;2022-11-20T05:58:51;3.70;;;0.98;;
16792;SDS011;8513;42.662;23.350;2022-11-20T06:01:18;2.08;;;1.10;;
16792;SDS011;8513;42.662;23.350;2022-11-20T06:03:45;3.80;;;1.45;;
16792;SDS011;8513;42.662;23.350;2022-11-20T06:06:12;2.90;;;1.35;;
16792;SDS011;8513;42.662;23.350;2022-11-20T06:08:39;4.85;;;1.70;;
16792;SDS011;8513;42.662;23.350;2022-11-20T06:11:05;3.70;;;1.80;;
16792;SDS011;8513;42.662;23.350;2022-11-20T06:13:32;3.83;;;1.48;;
16792;SDS011;8513;42.662;23.350;2022-11-20T06:15:58;2.38;;;1.17;;
16792;SDS011;8513;42.662;23.350;2022-11-20T06:18:25;3.03;;;1.33;;
16792;SDS011;8513;42.662;23.350;2022-11-20T06:20:58;2.90;;;1.20;;
16792;SDS011;8513;42.662;23.350;2022-11-20T06:23:34;7.45;;;1.45;;
16792;SDS011;8513;42.662;23.350;2022-11-20T06:26:01;5.35;;;1.50;;
16792;SDS011;8513;42.662;23.350;2022-11-20T06:28:31;3.17;;;1.50;;
16792;SDS011;8513;42.662;23.350;2022-11-20T06:30:56;5.07;;;1.48;;
16792;SDS011;8513;42.662;23.350;2022-11-20T06:33:22;4.32;;;1.35;;
16792;SDS011;8513;42.662;23.350;2022-11-20T06:35:48;1.20;;;1.10;;
16792;SDS011;8513;42.662;23.350;2022-11-20T06:38:13;3.15;;;1.52;;
16792;SDS011;8513;42.662;23.350;2022-11-20T06:40:42;2.13;;;1.27;;
16792;SDS011;8513;42.662;23.350;2022-11-20T06:43:08;4.28;;;1.48;;
16792;SDS011;8513;42.662;23.350;2022-11-20T06:45:34;5.38;;;1.63;;
16792;SDS011;8513;42.662;23.350;2022-11-20T06:48:00;3.20;;;1.58;;
16792;SDS011;8513;42.662;23.350;2022-11-20T06:50:25;4.78;;;1.63;;
16792;SDS011;8513;42.662;23.350;2022-11-20T06:52:51;3.72;;;1.60;;
16792;SDS011;8513;42.662;23.350;2022-11-20T06:55:16;3.38;;;1.65;;
16792;SDS011;8513;42.662;23.350;2022-11-20T06:57:41;5.00;;;1.50;;
16792;SDS011;8513;42.662;23.350;2022-11-20T07:00:07;3.85;;;1.80;;
16792;SDS011;8513;42.662;23.350;2022-11-20T07:02:33;4.80;;;2.25;;
16792;SDS011;8513;42.662;23.350;2022-11-20T07:04:58;6.75;;;2.00;;
16792;SDS011;8513;42.662;23.350;2022-11-20T07:07:24;3.22;;;1.67;;
16792;SDS011;8513;42.662;23.350;2022-11-20T07:09:49;1.85;;;1.38;;
16792;SDS011;8513;42.662;23.350;2022-11-20T07:12:14;3.85;;;1.88;;
16792;SDS011;8513;42.662;23.350;2022-11-20T07:14:40;3.80;;;1.67;;
16792;SDS011;8513;42.662;23.350;2022-11-20T07:17:05;4.53;;;1.20;;
16792;SDS011;8513;42.662;23.350;2022-11-20T07:19:31;3.35;;;1.08;;
16792;SDS011;8513;42.662;23.350;2022-11-20T07:21:56;2.28;;;1.20;;
16792;SDS011;8513;42.662;23.350;2022-11-20T07:24:21;4.32;;;1.05;;
16792;SDS011;8513;42.662;23.350;2022-11-20T07:26:47;2.58;;;1.40;;
16792;SDS011;8513;42.662;23.350;2022-11-20T07:29:14;4.40;;;1.98;;
16792;SDS011;8513;42.662;23.350;2022-11-20T07:31:40;3.83;;;1.20;;
16792;SDS011;8513;42.662;23.350;2022-11-20T07:34:05;4.70;;;1.60;;
16792;SDS011;8513;42.662;23.350;2022-11-20T07:36:31;4.32;;;1.45;;
16792;SDS011;8513;42.662;23.350;2022-11-20T07:38:56;2.13;;;1.50;;
16792;SDS011;8513;42.662;23.350;2022-11-20T07:41:21;5.03;;;1.48;;
16792;SDS011;8513;42.662;23.350;2022-11-20T07:43:47;4.70;;;1.48;;
16792;SDS011;8513;42.662;23.350;2022-11-20T07:46:12;4.22;;;1.75;;
16792;SDS011;8513;42.662;23.350;2022-11-20T07:48:38;4.30;;;1.70;;
16792;SDS011;8513;42.662;23.350;2022-11-20T07:51:03;5.00;;;1.67;;
16792;SDS011;8513;42.662;23.350;2022-11-20T07:53:28;2.92;;;1.38;;
16792;SDS011;8513;42.662;23.350;2022-11-20T07:55:54;3.97;;;1.40;;
16792;SDS011;8513;42.662;23.350;2022-11-20T07:58:19;4.28;;;1.88;;
16792;SDS011;8513;42.662;23.350;2022-11-20T08:00:45;4.90;;;1.90;;
16792;SDS011;8513;42.662;23.350;2022-11-20T08:03:11;3.22;;;1.60;;
16792;SDS011;8513;42.662;23.350;2022-11-20T08:05:36;4.90;;;1.52;;
16792;SDS011;8513;42.662;23.350;2022-11-20T08:08:02;8.85;;;2.20;;
16792;SDS011;8513;42.662;23.350;2022-11-20T08:10:28;7.10;;;1.92;;
16792;SDS011;8513;42.662;23.350;2022-11-20T08:12:53;5.80;;;2.30;;
16792;SDS011;8513;42.662;23.350;2022-11-20T08:15:38;3.30;;;1.40;;
16792;SDS011;8513;42.662;23.350;2022-11-20T08:18:09;5.28;;;1.90;;
16792;SDS011;8513;42.662;23.350;2022-11-20T08:20:38;2.85;;;1.60;;
16792;SDS011;8513;42.662;23.350;2022-11-20T08:23:04;3.17;;;1.55;;
16792;SDS011;8513;42.662;23.350;2022-11-20T08:25:31;4.18;;;1.60;;
16792;SDS011;8513;42.662;23.350;2022-11-20T08:27:58;3.08;;;1.77;;
16792;SDS011;8513;42.662;23.350;2022-11-20T08:30:24;3.67;;;1.85;;
16792;SDS011;8513;42.662;23.350;2022-11-20T08:32:50;5.35;;;1.85;;
16792;SDS011;8513;42.662;23.350;2022-11-20T08:35:16;7.68;;;2.20;;
16792;SDS011;8513;42.662;23.350;2022-11-20T08:37:41;3.28;;;1.52;;
16792;SDS011;8513;42.662;23.350;2022-11-20T08:40:10;3.45;;;1.70;;
16792;SDS011;8513;42.662;23.350;2022-11-20T08:42:36;6.20;;;1.50;;
16792;SDS011;8513;42.662;23.350;2022-11-20T08:45:01;3.65;;;1.60;;
16792;SDS011;8513;42.662;23.350;2022-11-20T08:47:27;4.75;;;1.83;;
16792;SDS011;8513;42.662;23.350;2022-11-20T08:49:53;7.82;;;1.90;;
16792;SDS011;8513;42.662;23.350;2022-11-20T08:52:18;5.60;;;1.77;;
16792;SDS011;8513;42.662;23.350;2022-11-20T08:54:44;3.83;;;1.75;;
16792;SDS011;8513;42.662;23.350;2022-11-20T08:57:09;4.82;;;1.98;;
16792;SDS011;8513;42.662;23.350;2022-11-20T08:59:35;4.30;;;1.80;;
16792;SDS011;8513;42.662;23.350;2022-11-20T09:02:00;5.45;;;2.40;;
16792;SDS011;8513;42.662;23.350;2022-11-20T09:04:25;4.93;;;2.00;;
16792;SDS011;8513;42.662;23.350;2022-11-20T09:06:51;4.38;;;1.90;;
16792;SDS011;8513;42.662;23.350;2022-11-20T09:09:17;3.75;;;1.95;;
16792;SDS011;8513;42.662;23.350;2022-11-20T09:11:43;7.18;;;2.42;;
16792;SDS011;8513;42.662;23.350;2022-11-20T09:14:09;7.25;;;3.35;;
16792;SDS011;8513;42.662;23.350;2022-11-20T09:16:34;3.72;;;2.60;;
16792;SDS011;8513;42.662;23.350;2022-11-20T09:19:00;4.15;;;2.65;;
16792;SDS011;8513;42.662;23.350;2022-11-20T09:21:25;4.10;;;1.70;;
16792;SDS011;8513;42.662;23.350;2022-11-20T09:23:51;4.82;;;2.63;;
16792;SDS011;8513;42.662;23.350;2022-11-20T09:26:16;3.05;;;2.20;;
16792;SDS011;8513;42.662;23.350;2022-11-20T09:28:41;3.08;;;1.40;;
16792;SDS011;8513;42.662;23.350;2022-11-20T09:31:07;3.67;;;1.60;;
16792;SDS011;8513;42.662;23.350;2022-11-20T09:33:35;1.38;;;1.02;;
16792;SDS011;8513;42.662;23.350;2022-11-20T09:36:00;2.33;;;1.35;;
16792;SDS011;8513;42.662;23.350;2022-11-20T09:38:26;2.55;;;1.38;;
16792;SDS011;8513;42.662;23.350;2022-11-20T09:51:58;4.18;;;2.05;;
16792;SDS011;8513;42.662;23.350;2022-11-20T09:54:41;3.38;;;1.83;;
16792;SDS011;8513;42.662;23.350;2022-11-20T09:59:41;3.25;;;2.00;;
16792;SDS011;8513;42.662;23.350;2022-11-20T10:07:48;2.95;;;2.50;;
16792;SDS011;8513;42.662;23.350;2022-11-20T10:10:31;4.57;;;2.30;;
16792;SDS011;8513;42.662;23.350;2022-11-20T10:13:09;4.03;;;2.38;;
16792;SDS011;8513;42.662;23.350;2022-11-20T10:21:29;6.32;;;2.50;;
16792;SDS011;8513;42.662;23.350;2022-11-20T10:24:08;7.03;;;2.80;;
16792;SDS011;8513;42.662;23.350;2022-11-20T10:29:55;4.70;;;3.83;;
16792;SDS011;8513;42.662;23.350;2022-11-20T10:32:31;5.32;;;3.17;;
16792;SDS011;8513;42.662;23.350;2022-11-20T10:37:39;6.65;;;3.47;;
16792;SDS011;8513;42.662;23.350;2022-11-20T10:42:44;7.97;;;4.03;;
16792;SDS011;8513;42.662;23.350;2022-11-20T10:50:25;8.68;;;3.97;;
16792;SDS011;8513;42.662;23.350;2022-11-20T10:55:39;7.20;;;3.97;;
16792;SDS011;8513;42.662;23.350;2022-11-20T11:01:20;4.78;;;3.70;;
16792;SDS011;8513;42.662;23.350;2022-11-20T11:03:51;4.68;;;3.33;;
16792;SDS011;8513;42.662;23.350;2022-11-20T11:09:15;8.48;;;4.30;;
16792;SDS011;8513;42.662;23.350;2022-11-20T11:11:44;6.93;;;4.20;;
16792;SDS011;8513;42.662;23.350;2022-11-20T11:14:11;12.38;;;4.55;;
16792;SDS011;8513;42.662;23.350;2022-11-20T11:16:52;9.52;;;3.78;;
16792;SDS011;8513;42.662;23.350;2022-11-20T11:19:19;3.47;;;0.93;;
16792;SDS011;8513;42.662;23.350;2022-11-20T11:21:48;2.47;;;1.30;;
16792;SDS011;8513;42.662;23.350;2022-11-20T11:26:54;2.42;;;1.38;;
16792;SDS011;8513;42.662;23.350;2022-11-20T11:29:23;3.22;;;1.10;;
16792;SDS011;8513;42.662;23.350;2022-11-20T11:31:48;1.92;;;0.93;;
16792;SDS011;8513;42.662;23.350;2022-11-20T11:34:15;1.45;;;0.95;;
16792;SDS011;8513;42.662;23.350;2022-11-20T11:36:42;2.25;;;0.80;;
16792;SDS011;8513;42.662;23.350;2022-11-20T11:39:18;4.65;;;1.00;;
16792;SDS011;8513;42.662;23.350;2022-11-20T11:41:45;2.88;;;0.93;;
16792;SDS011;8513;42.662;23.350;2022-11-20T11:44:19;4.43;;;1.38;;
16792;SDS011;8513;42.662;23.350;2022-11-20T11:47:08;1.38;;;1.00;;
16792;SDS011;8513;42.662;23.350;2022-11-20T11:49:41;2.13;;;1.20;;
16792;SDS011;8513;42.662;23.350;2022-11-20T11:52:17;3.10;;;1.00;;
16792;SDS011;8513;42.662;23.350;2022-11-20T11:57:20;2.65;;;1.13;;
16792;SDS011;8513;42.662;23.350;2022-11-20T11:59:54;3.50;;;1.20;;
16792;SDS011;8513;42.662;23.350;2022-11-20T12:07:45;3.55;;;1.50;;
16792;SDS011;8513;42.662;23.350;2022-11-20T12:13:02;3.07;;;1.20;;
16792;SDS011;8513;42.662;23.350;2022-11-20T12:15:45;3.92;;;0.95;;
16792;SDS011;8513;42.662;23.350;2022-11-20T12:18:16;3.10;;;1.10;;
16792;SDS011;8513;42.662;23.350;2022-11-20T12:21:06;2.75;;;1.00;;
16792;SDS011;8513;42.662;23.350;2022-11-20T12:26:40;2.33;;;0.93;;
16792;SDS011;8513;42.662;23.350;2022-11-20T12:40:44;5.05;;;0.80;;
16792;SDS011;8513;42.662;23.350;2022-11-20T12:43:23;1.55;;;1.10;;
16792;SDS011;8513;42.662;23.350;2022-11-20T12:51:45;2.65;;;1.42;;
16792;SDS011;8513;42.662;23.350;2022-11-20T12:54:41;2.78;;;1.23;;
16792;SDS011;8513;42.662;23.350;2022-11-20T13:00:15;4.50;;;1.80;;
16792;SDS011;8513;42.662;23.350;2022-11-20T13:07:47;4.68;;;1.60;;
16792;SDS011;8513;42.662;23.350;2022-11-20T13:10:18;4.68;;;2.03;;
16792;SDS011;8513;42.662;23.350;2022-11-20T13:12:55;9.23;;;2.20;;
16792;SDS011;8513;42.662;23.350;2022-11-20T13:18:18;3.92;;;1.65;;
16792;SDS011;8513;42.662;23.350;2022-11-20T13:20:44;3.15;;;2.00;;
16792;SDS011;8513;42.662;23.350;2022-11-20T13:23:22;3.80;;;1.92;;
16792;SDS011;8513;42.662;23.350;2022-11-20T13:25:49;2.92;;;2.08;;
16792;SDS011;8513;42.662;23.350;2022-11-20T13:30:50;4.65;;;2.13;;
16792;SDS011;8513;42.662;23.350;2022-11-20T13:33:36;6.05;;;2.45;;
16792;SDS011;8513;42.662;23.350;2022-11-20T13:36:04;6.53;;;2.17;;
16792;SDS011;8513;42.662;23.350;2022-11-20T13:38:42;3.88;;;2.20;;
16792;SDS011;8513;42.662;23.350;2022-11-20T13:41:11;5.30;;;2.28;;
16792;SDS011;8513;42.662;23.350;2022-11-20T13:46:39;4.70;;;2.50;;
16792;SDS011;8513;42.662;23.350;2022-11-20T13:49:09;3.70;;;2.10;;
16792;SDS011;8513;42.662;23.350;2022-11-20T13:51:43;4.50;;;2.03;;
16792;SDS011;8513;42.662;23.350;2022-11-20T14:00:12;4.65;;;2.00;;
16792;SDS011;8513;42.662;23.350;2022-11-20T14:02:40;4.80;;;2.30;;
16792;SDS011;8513;42.662;23.350;2022-11-20T14:05:28;3.13;;;2.05;;
16792;SDS011;8513;42.662;23.350;2022-11-20T14:07:56;5.40;;;2.25;;
16792;SDS011;8513;42.662;23.350;2022-11-20T14:10:23;4.00;;;2.80;;
16792;SDS011;8513;42.662;23.350;2022-11-20T14:12:49;6.00;;;2.75;;
16792;SDS011;8513;42.662;23.350;2022-11-20T14:15:26;5.05;;;2.60;;
16792;SDS011;8513;42.662;23.350;2022-11-20T14:17:56;6.85;;;3.55;;
16792;SDS011;8513;42.662;23.350;2022-11-20T14:20:23;4.95;;;3.50;;
16792;SDS011;8513;42.662;23.350;2022-11-20T14:22:52;5.60;;;3.13;;
16792;SDS011;8513;42.662;23.350;2022-11-20T14:25:21;5.18;;;3.20;;
16792;SDS011;8513;42.662;23.350;2022-11-20T14:27:50;7.25;;;3.17;;
16792;SDS011;8513;42.662;23.350;2022-11-20T14:30:19;4.57;;;3.42;;
16792;SDS011;8513;42.662;23.350;2022-11-20T14:32:48;4.75;;;3.30;;
16792;SDS011;8513;42.662;23.350;2022-11-20T14:35:15;8.65;;;3.50;;
16792;SDS011;8513;42.662;23.350;2022-11-20T14:37:46;8.73;;;4.18;;
16792;SDS011;8513;42.662;23.350;2022-11-20T14:42:47;8.23;;;4.18;;
16792;SDS011;8513;42.662;23.350;2022-11-20T14:45:12;8.05;;;4.00;;
16792;SDS011;8513;42.662;23.350;2022-11-20T14:47:38;6.13;;;3.85;;
16792;SDS011;8513;42.662;23.350;2022-11-20T14:50:07;6.45;;;3.92;;
16792;SDS011;8513;42.662;23.350;2022-11-20T14:52:39;6.30;;;4.13;;
16792;SDS011;8513;42.662;23.350;2022-11-20T14:55:26;5.35;;;3.97;;
16792;SDS011;8513;42.662;23.350;2022-11-20T14:57:55;7.07;;;4.63;;
16792;SDS011;8513;42.662;23.350;2022-11-20T15:00:23;7.68;;;4.07;;
16792;SDS011;8513;42.662;23.350;2022-11-20T15:02:49;6.93;;;4.03;;
16792;SDS011;8513;42.662;23.350;2022-11-20T15:05:17;4.47;;;3.42;;
16792;SDS011;8513;42.662;23.350;2022-11-20T15:07:49;3.95;;;2.72;;
16792;SDS011;8513;42.662;23.350;2022-11-20T15:12:48;3.45;;;2.17;;
16792;SDS011;8513;42.662;23.350;2022-11-20T15:15:21;4.22;;;2.35;;
16792;SDS011;8513;42.662;23.350;2022-11-20T15:17:52;2.85;;;2.00;;
16792;SDS011;8513;42.662;23.350;2022-11-20T15:20:18;2.28;;;1.80;;
16792;SDS011;8513;42.662;23.350;2022-11-20T15:22:44;6.65;;;2.15;;
16792;SDS011;8513;42.662;23.350;2022-11-20T15:25:13;4.13;;;1.80;;
16792;SDS011;8513;42.662;23.350;2022-11-20T15:27:41;4.28;;;2.20;;
16792;SDS011;8513;42.662;23.350;2022-11-20T15:30:14;2.42;;;2.22;;
16792;SDS011;8513;42.662;23.350;2022-11-20T15:32:42;2.63;;;1.90;;
16792;SDS011;8513;42.662;23.350;2022-11-20T15:35:09;4.30;;;1.75;;
16792;SDS011;8513;42.662;23.350;2022-11-20T15:37:36;4.15;;;2.25;;
16792;SDS011;8513;42.662;23.350;2022-11-20T15:40:02;2.40;;;1.73;;
16792;SDS011;8513;42.662;23.350;2022-11-20T15:42:28;2.28;;;1.70;;
16792;SDS011;8513;42.662;23.350;2022-11-20T15:44:54;1.90;;;1.70;;
16792;SDS011;8513;42.662;23.350;2022-11-20T15:47:20;2.35;;;1.70;;
16792;SDS011;8513;42.662;23.350;2022-11-20T15:49:59;5.03;;;1.95;;
16792;SDS011;8513;42.662;23.350;2022-11-20T15:52:24;3.92;;;1.85;;
16792;SDS011;8513;42.662;23.350;2022-11-20T15:54:50;2.75;;;1.60;;
16792;SDS011;8513;42.662;23.350;2022-11-20T15:57:15;2.88;;;1.65;;
16792;SDS011;8513;42.662;23.350;2022-11-20T15:59:41;3.50;;;1.70;;
16792;SDS011;8513;42.662;23.350;2022-11-20T16:02:11;2.20;;;2.00;;
16792;SDS011;8513;42.662;23.350;2022-11-20T16:04:38;3.47;;;2.10;;
16792;SDS011;8513;42.662;23.350;2022-11-20T16:07:04;5.38;;;2.00;;
16792;SDS011;8513;42.662;23.350;2022-11-20T16:09:29;2.77;;;1.97;;
16792;SDS011;8513;42.662;23.350;2022-11-20T16:11:55;2.75;;;1.83;;
16792;SDS011;8513;42.662;23.350;2022-11-20T16:14:20;3.65;;;1.90;;
16792;SDS011;8513;42.662;23.350;2022-11-20T16:17:04;3.90;;;2.35;;
16792;SDS011;8513;42.662;23.350;2022-11-20T16:19:30;3.67;;;2.15;;
16792;SDS011;8513;42.662;23.350;2022-11-20T16:21:57;3.42;;;2.17;;
16792;SDS011;8513;42.662;23.350;2022-11-20T16:24:24;3.70;;;2.20;;
16792;SDS011;8513;42.662;23.350;2022-11-20T16:26:49;2.53;;;2.10;;
16792;SDS011;8513;42.662;23.350;2022-11-20T16:29:15;4.50;;;2.30;;
16792;SDS011;8513;42.662;23.350;2022-11-20T16:31:40;4.82;;;2.33;;
16792;SDS011;8513;42.662;23.350;2022-11-20T16:34:06;4.72;;;2.80;;
16792;SDS011;8513;42.662;23.350;2022-11-20T16:36:32;4.53;;;2.40;;
16792;SDS011;8513;42.662;23.350;2022-11-20T16:38:59;5.22;;;3.30;;
16792;SDS011;8513;42.662;23.350;2022-11-20T16:41:26;4.00;;;2.30;;
16792;SDS011;8513;42.662;23.350;2022-11-20T16:43:55;3.10;;;1.92;;
16792;SDS011;8513;42.662;23.350;2022-11-20T16:46:22;2.72;;;1.90;;
16792;SDS011;8513;42.662;23.350;2022-11-20T16:49:00;2.08;;;1.88;;
16792;SDS011;8513;42.662;23.350;2022-11-20T16:51:28;3.03;;;1.90;;
16792;SDS011;8513;42.662;23.350;2022-11-20T16:53:55;4.07;;;2.00;;